Time;durP1;ratioP1;P1;durP2;ratioP2;P2;SDS_P1;SDS_P2;PMS_P1;PMS_P2;Temp;Humidity;BMP_temperature;BMP_pressure;BME280_temperature;BME280_humidity;BME280_pressure;Samples;Min_cycle;Max_cycle;Signal;HPM_P1;HPM_P2
2021/07/28 00:00:48;;;;;;;15.17;7.30;;;;;;;19.23;64.34;98855.16;125427;1096;102942;-77
2021/07/28 00:03:18;;;;;;;17.43;8.00;;;;;;;19.19;64.17;98853.81;125413;1096;103023;-77
2021/07/28 00:05:47;;;;;;;16.23;7.77;;;;;;;19.12;64.49;98858.20;125390;1096;102926;-77
2021/07/28 00:08:15;;;;;;;18.40;8.03;;;;;;;19.07;64.41;98857.88;125399;1096;103068;-76
2021/07/28 00:10:43;;;;;;;19.20;9.20;;;;;;;19.03;64.41;98854.70;125378;1096;103451;-77
2021/07/28 00:13:12;;;;;;;17.63;8.53;;;;;;;18.98;64.71;98848.98;125474;1095;102939;-77
2021/07/28 00:15:41;;;;;;;16.77;8.40;;;;;;;18.97;64.72;98847.30;125430;1095;102958;-79
2021/07/28 00:18:19;;;;;;;18.90;8.50;;;;;;;18.91;64.92;98851.49;125435;1096;103015;-79
2021/07/28 00:23:16;;;;;;;20.53;8.60;;;;;;;18.87;64.73;98855.54;125436;1096;102998;-78
2021/07/28 00:25:47;;;;;;;15.33;7.93;;;;;;;18.86;64.75;98851.16;125435;1097;103050;-78
2021/07/28 00:28:16;;;;;;;20.00;8.33;;;;;;;18.88;64.65;98843.75;125487;1095;102950;-77
2021/07/28 00:30:44;;;;;;;17.03;8.17;;;;;;;18.87;64.51;98845.59;125454;1095;103001;-77
2021/07/28 00:33:13;;;;;;;18.87;8.60;;;;;;;18.87;64.82;98836.67;125433;1097;103416;-78
2021/07/28 00:35:41;;;;;;;19.10;8.47;;;;;;;18.87;65.16;98840.20;125425;1099;103042;-78
2021/07/28 00:38:09;;;;;;;17.43;7.73;;;;;;;18.89;65.00;98838.17;125458;1098;103019;-78
2021/07/28 00:40:38;;;;;;;20.23;8.37;;;;;;;18.91;65.03;98835.33;125432;1097;102934;-77
2021/07/28 00:43:12;;;;;;;16.17;8.60;;;;;;;18.90;65.34;98829.08;125468;1097;102919;-74
2021/07/28 00:45:41;;;;;;;16.97;8.17;;;;;;;18.88;65.46;98836.49;125474;1097;103002;-76
2021/07/28 00:48:13;;;;;;;17.20;7.90;;;;;;;18.84;65.50;98829.76;125500;1096;103044;-76
2021/07/28 00:50:42;;;;;;;15.23;7.23;;;;;;;18.82;65.29;98831.78;125528;1095;103038;-77
2021/07/28 00:53:18;;;;;;;19.03;8.20;;;;;;;18.81;65.57;98826.58;125532;1097;103001;-77
2021/07/28 00:55:48;;;;;;;16.30;7.93;;;;;;;18.75;65.41;98825.39;125512;1095;103013;-78
2021/07/28 00:58:18;;;;;;;17.33;8.40;;;;;;;18.70;65.45;98820.52;125478;1096;103024;-75
2021/07/28 01:00:48;;;;;;;16.57;7.73;;;;;;;18.63;65.58;98827.59;125347;1097;102920;-76
2021/07/28 01:03:18;;;;;;;16.57;8.10;;;;;;;18.51;65.59;98815.51;125447;1096;103036;-76
2021/07/28 01:05:47;;;;;;;17.70;7.83;;;;;;;18.43;65.55;98827.09;125389;1096;102922;-76
2021/07/28 01:08:15;;;;;;;16.30;8.23;;;;;;;18.38;65.70;98826.76;125467;1095;103007;-76
2021/07/28 01:10:46;;;;;;;17.10;8.57;;;;;;;18.32;65.74;98827.45;125455;1097;103167;-76
2021/07/28 01:13:26;;;;;;;18.80;8.87;;;;;;;18.27;65.84;98826.11;125451;1097;102987;-76
2021/07/28 01:16:14;;;;;;;17.70;8.90;;;;;;;18.22;66.07;98825.77;125422;1097;102942;-76
2021/07/28 01:18:43;;;;;;;17.10;8.23;;;;;;;18.21;66.23;98826.77;125406;1095;103105;-77
2021/07/28 01:21:13;;;;;;;19.37;8.90;;;;;;;18.22;66.15;98831.14;125411;1096;103042;-76
2021/07/28 01:23:42;;;;;;;18.27;8.33;;;;;;;18.22;66.37;98824.91;125411;1096;102980;-78
2021/07/28 01:26:13;;;;;;;17.83;9.47;;;;;;;18.21;66.35;98826.77;125409;1096;103040;-77
2021/07/28 01:28:41;;;;;;;17.00;8.37;;;;;;;18.21;66.79;98820.53;125429;1096;102925;-76
2021/07/28 01:31:15;;;;;;;19.97;9.13;;;;;;;18.21;66.42;98821.39;125477;1095;102937;-77
2021/07/28 01:33:46;;;;;;;18.17;8.03;;;;;;;18.24;66.60;98818.36;125448;1096;102930;-77
2021/07/28 01:36:21;;;;;;;16.87;8.67;;;;;;;18.28;66.68;98816.16;125488;1096;103009;-75
2021/07/28 01:38:50;;;;;;;17.93;8.53;;;;;;;18.29;66.63;98820.54;125453;1096;103087;-75
2021/07/28 01:41:20;;;;;;;20.23;8.97;;;;;;;18.25;66.81;98813.80;125474;1095;102917;-78
2021/07/28 01:43:48;;;;;;;19.13;9.53;;;;;;;18.19;66.68;98809.95;125375;1096;103019;-76
2021/07/28 01:46:18;;;;;;;17.73;8.80;;;;;;;18.16;67.20;98807.58;125437;1096;102916;-77
2021/07/28 01:48:47;;;;;;;19.50;9.90;;;;;;;18.13;67.11;98813.30;125484;1095;102941;-77
2021/07/28 01:51:15;;;;;;;20.30;9.43;;;;;;;18.11;66.84;98809.93;125444;1095;103013;-77
2021/07/28 01:53:44;;;;;;;19.43;10.00;;;;;;;18.11;66.91;98807.23;125444;1096;103020;-76
2021/07/28 01:56:14;;;;;;;18.67;8.97;;;;;;;18.10;67.39;98797.48;125410;1100;103034;-78
2021/07/28 01:58:52;;;;;;;20.73;9.63;;;;;;;18.08;67.05;98799.49;125577;1096;103038;-77
2021/07/28 02:01:21;;;;;;;17.95;9.05;;;;;;;18.04;67.54;98800.83;125618;1096;103026;-78
2021/07/28 02:03:50;;;;;;;21.80;8.83;;;;;;;18.03;67.55;98804.53;125597;1096;103099;-78
2021/07/28 02:06:18;;;;;;;20.17;9.90;;;;;;;18.03;67.59;98812.61;125615;1096;102942;-77
2021/07/28 02:08:47;;;;;;;19.97;8.87;;;;;;;18.03;67.20;98812.61;125468;1096;103419;-78
2021/07/28 02:11:16;;;;;;;21.63;9.73;;;;;;;18.03;67.75;98815.30;125508;1096;102942;-78
2021/07/28 02:13:44;;;;;;;18.07;8.33;;;;;;;17.98;67.87;98805.84;125550;1096;103082;-78
2021/07/28 02:16:12;;;;;;;18.03;9.30;;;;;;;17.94;67.42;98815.25;125470;1097;103020;-81
2021/07/28 02:18:41;;;;;;;19.57;9.17;;;;;;;17.90;67.63;98807.69;125493;1096;103419;-79
2021/07/28 02:21:09;;;;;;;18.03;9.10;;;;;;;17.89;67.87;98803.31;125421;1097;102921;-79
2021/07/28 02:23:38;;;;;;;20.10;9.50;;;;;;;17.85;67.55;98800.95;125455;1097;102919;-78
2021/07/28 02:26:06;;;;;;;19.57;9.10;;;;;;;17.85;68.07;98794.73;125460;1096;103377;-78
2021/07/28 02:28:34;;;;;;;18.83;8.77;;;;;;;17.84;67.68;98799.27;125443;1095;103128;-77
2021/07/28 02:31:03;;;;;;;18.93;9.57;;;;;;;17.85;67.89;98797.43;125432;1097;103027;-77
2021/07/28 02:33:32;;;;;;;16.43;8.47;;;;;;;17.86;68.31;98809.88;125442;1096;102946;-78
2021/07/28 02:36:00;;;;;;;17.35;8.75;;;;;;;17.84;67.86;98807.33;125440;1095;103073;-77
2021/07/28 02:38:28;;;;;;;19.30;9.20;;;;;;;17.83;67.90;98810.20;125446;1096;103016;-78
2021/07/28 02:40:57;;;;;;;18.55;9.15;;;;;;;17.81;68.00;98807.66;125432;1097;102916;-78
2021/07/28 02:43:25;;;;;;;24.73;9.80;;;;;;;17.82;67.93;98811.20;125473;1096;102943;-76
2021/07/28 02:45:53;;;;;;;21.20;9.90;;;;;;;17.82;68.07;98809.34;125449;1096;102988;-76
2021/07/28 02:48:21;;;;;;;19.80;9.47;;;;;;;17.80;68.43;98808.66;125499;1096;102939;-78
2021/07/28 02:50:50;;;;;;;19.65;9.70;;;;;;;17.77;68.38;98808.99;125410;1096;103080;-76
2021/07/28 02:53:21;;;;;;;18.63;9.10;;;;;;;17.72;68.15;98808.67;125417;1097;103128;-76
2021/07/28 02:55:49;;;;;;;17.53;8.73;;;;;;;17.66;68.65;98806.63;125467;1096;103034;-76
2021/07/28 02:58:17;;;;;;;15.93;8.00;;;;;;;17.62;68.48;98806.09;125416;1097;103396;-76
2021/07/28 03:00:47;;;;;;;19.73;9.90;;;;;;;17.61;68.40;98812.48;125520;1096;103090;-76
2021/07/28 03:03:15;;;;;;;19.87;10.03;;;;;;;17.62;68.73;98802.58;125582;1095;102914;-77
2021/07/28 03:05:44;;;;;;;20.83;8.87;;;;;;;17.62;68.46;98805.27;125547;1096;103019;-76
2021/07/28 03:08:13;;;;;;;19.17;10.43;;;;;;;17.59;68.75;98802.91;125472;1096;102923;-77
2021/07/28 03:10:41;;;;;;;18.97;8.83;;;;;;;17.54;69.00;98800.69;125417;1096;103026;-77
2021/07/28 03:13:10;;;;;;;18.53;9.03;;;;;;;17.50;69.02;98810.12;125458;1096;102922;-76
2021/07/28 03:15:39;;;;;;;19.33;9.57;;;;;;;17.43;69.07;98801.01;125453;1095;103012;-75
2021/07/28 03:18:08;;;;;;;20.20;9.45;;;;;;;17.41;69.15;98807.39;125427;1097;102948;-77
2021/07/28 03:20:36;;;;;;;20.67;9.37;;;;;;;17.39;68.99;98811.23;125473;1097;102922;-75
2021/07/28 03:23:04;;;;;;;21.23;8.73;;;;;;;17.37;69.22;98799.80;125387;1096;103009;-75
2021/07/28 03:25:37;;;;;;;20.00;9.77;;;;;;;17.38;69.28;98806.86;125477;1096;102947;-75
2021/07/28 03:28:05;;;;;;;19.10;8.87;;;;;;;17.41;69.13;98801.16;125494;1096;102994;-76
2021/07/28 03:30:34;;;;;;;18.13;9.27;;;;;;;17.41;69.04;98795.78;125432;1096;103127;-75
2021/07/28 03:33:02;;;;;;;18.63;8.50;;;;;;;17.39;69.29;98798.64;125538;1095;102917;-75
2021/07/28 03:35:30;;;;;;;20.10;9.93;;;;;;;17.36;69.35;98798.11;125535;1096;103022;-77
2021/07/28 03:37:59;;;;;;;20.67;9.30;;;;;;;17.34;69.19;98806.34;125579;1096;103639;-77
2021/07/28 03:40:27;;;;;;;16.60;8.93;;;;;;;17.36;69.33;98804.34;125449;1097;103033;-75
2021/07/28 03:42:55;;;;;;;18.10;9.37;;;;;;;17.38;69.70;98806.86;125395;1097;103054;-75
2021/07/28 03:45:24;;;;;;;16.50;8.30;;;;;;;17.41;69.50;98804.70;125455;1096;102922;-76
2021/07/28 03:47:52;;;;;;;19.03;9.47;;;;;;;17.41;69.78;98809.22;125467;1095;103069;-75
2021/07/28 03:50:20;;;;;;;19.43;9.60;;;;;;;17.44;69.37;98811.59;125453;1096;103097;-75
2021/07/28 03:52:49;;;;;;;18.17;9.27;;;;;;;17.47;69.86;98803.20;125432;1095;103020;-75
2021/07/28 03:55:17;;;;;;;19.27;9.20;;;;;;;17.53;69.52;98801.70;125455;1096;102919;-76
2021/07/28 03:57:46;;;;;;;15.23;7.73;;;;;;;17.58;69.48;98791.30;125445;1096;102935;-76
2021/07/28 04:00:15;;;;;;;18.33;8.17;;;;;;;17.63;69.49;98793.52;125422;1095;102948;-77
2021/07/28 04:02:43;;;;;;;17.00;8.57;;;;;;;17.68;69.58;98797.38;125497;1097;102917;-78
2021/07/28 04:05:12;;;;;;;17.20;8.67;;;;;;;17.70;69.60;98786.47;125459;1095;103023;-76
2021/07/28 04:07:41;;;;;;;17.40;8.23;;;;;;;17.72;70.06;98787.16;125400;1096;103040;-75
2021/07/28 04:10:11;;;;;;;18.67;7.83;;;;;;;17.76;69.77;98793.03;125479;1096;102942;-76
2021/07/28 04:12:40;;;;;;;14.70;7.23;;;;;;;17.80;70.07;98792.52;125415;1095;103077;-74
2021/07/28 04:15:10;;;;;;;18.77;7.67;;;;;;;17.85;69.82;98786.66;125420;1096;103094;-75
2021/07/28 04:17:38;;;;;;;15.33;7.67;;;;;;;17.91;69.83;98785.15;125516;1095;103029;-77
2021/07/28 04:20:07;;;;;;;19.17;8.60;;;;;;;17.97;69.71;98795.25;125395;1096;103081;-75
2021/07/28 04:22:35;;;;;;;16.57;7.83;;;;;;;18.02;69.87;98790.25;125468;1096;102945;-76
2021/07/28 04:25:05;;;;;;;16.60;7.87;;;;;;;18.08;70.07;98791.42;125412;1095;103012;-74
2021/07/28 04:27:34;;;;;;;19.23;8.47;;;;;;;18.13;69.86;98789.93;125463;1096;102941;-82
2021/07/28 04:30:05;;;;;;;14.57;7.37;;;;;;;18.22;70.34;98784.52;125461;1097;103064;-73
2021/07/28 04:32:34;;;;;;;16.40;7.35;;;;;;;18.28;69.98;98786.55;125444;1097;103055;-73
2021/07/28 04:35:03;;;;;;;19.15;7.70;;;;;;;18.35;70.06;98786.70;125435;1097;102930;-72
2021/07/28 04:37:31;;;;;;;18.60;8.63;;;;;;;18.40;70.42;98784.35;125443;1097;103074;-73
2021/07/28 04:40:01;;;;;;;15.07;7.50;;;;;;;18.44;70.17;98772.23;125444;1097;102939;-74
2021/07/28 04:42:30;;;;;;;19.80;9.07;;;;;;;18.50;70.43;98773.42;125460;1097;102917;-76
2021/07/28 04:44:59;;;;;;;17.27;7.47;;;;;;;18.54;70.02;98767.52;125455;1096;103123;-73
2021/07/28 04:47:28;;;;;;;18.40;7.43;;;;;;;18.59;69.88;98775.93;125438;1097;103004;-71
2021/07/28 04:49:57;;;;;;;17.83;7.70;;;;;;;18.62;70.05;98766.66;125454;1095;103202;-74
2021/07/28 04:52:26;;;;;;;14.63;7.17;;;;;;;18.68;70.22;98770.53;125445;1095;103100;-74
2021/07/28 04:54:54;;;;;;;14.90;7.20;;;;;;;18.72;70.27;98769.19;125448;1097;103011;-73
2021/07/28 04:57:23;;;;;;;15.83;7.83;;;;;;;18.78;70.02;98771.16;125497;1095;103065;-74
2021/07/28 04:59:52;;;;;;;15.00;7.00;;;;;;;18.84;70.11;98762.39;125535;1095;102945;-79
2021/07/28 05:02:23;;;;;;;16.60;7.53;;;;;;;18.87;69.97;98762.05;125443;1095;103001;-77
2021/07/28 05:04:51;;;;;;;16.10;7.43;;;;;;;18.94;70.21;98755.98;125424;1096;102923;-77
2021/07/28 05:07:20;;;;;;;13.77;7.00;;;;;;;18.99;70.03;98759.85;125402;1097;103068;-79
2021/07/28 05:09:48;;;;;;;16.27;7.50;;;;;;;19.04;70.39;98751.27;125418;1097;103383;-75
2021/07/28 05:12:17;;;;;;;16.23;7.50;;;;;;;19.11;69.95;98748.70;125424;1097;103042;-73
2021/07/28 05:14:45;;;;;;;16.80;7.93;;;;;;;19.16;70.35;98757.11;125433;1096;103419;-75
2021/07/28 05:17:14;;;;;;;15.13;7.57;;;;;;;19.22;70.13;98745.63;125427;1097;103005;-73
2021/07/28 05:19:43;;;;;;;19.03;8.00;;;;;;;19.28;70.30;98742.23;125426;1096;103001;-75
2021/07/28 05:22:11;;;;;;;22.00;12.50;;;;;;;19.35;70.36;98739.66;125385;1096;102919;-78
2021/07/28 05:24:39;;;;;;;17.53;7.80;;;;;;;19.42;70.12;98737.09;125420;1096;102921;-75
2021/07/28 05:27:08;;;;;;;18.63;7.43;;;;;;;19.49;69.96;98743.45;125423;1095;102923;-73
2021/07/28 05:29:36;;;;;;;18.90;7.97;;;;;;;19.57;70.41;98734.47;125403;1097;103105;-73
2021/07/28 05:32:05;;;;;;;15.97;6.90;;;;;;;19.65;70.09;98729.03;125437;1097;103013;-79
2021/07/28 05:34:33;;;;;;;16.80;7.70;;;;;;;19.73;70.35;98726.28;125410;1096;103041;-78
2021/07/28 05:37:02;;;;;;;15.60;6.55;;;;;;;19.83;70.05;98731.43;125444;1096;103013;-79
2021/07/28 05:39:31;;;;;;;17.77;7.57;;;;;;;19.90;69.87;98724.33;125404;1096;103153;-78
2021/07/28 05:41:59;;;;;;;18.23;7.83;;;;;;;19.99;70.20;98732.37;125464;1096;103000;-78
2021/07/28 05:44:29;;;;;;;16.63;7.43;;;;;;;20.06;70.26;98727.93;125417;1097;103010;-79
2021/07/28 05:46:58;;;;;;;21.30;8.67;;;;;;;20.17;70.35;98730.20;125456;1096;103094;-81
2021/07/28 05:49:27;;;;;;;20.00;8.67;;;;;;;20.26;70.23;98730.96;125629;1096;103048;-77
2021/07/28 05:51:55;;;;;;;22.50;9.00;;;;;;;20.34;70.34;98724.64;125563;1096;102980;-77
2021/07/28 05:54:23;;;;;;;21.00;9.10;;;;;;;20.43;70.34;98726.23;125580;1095;103036;-77
2021/07/28 05:56:52;;;;;;;24.43;10.37;;;;;;;20.52;70.03;98727.84;125604;1096;103111;-79
2021/07/28 05:59:21;;;;;;;21.07;8.77;;;;;;;20.66;70.24;98733.42;125561;1095;103185;-80
2021/07/28 06:01:50;;;;;;;24.17;9.63;;;;;;;20.76;69.96;98734.00;125597;1096;102937;-70
2021/07/28 06:04:19;;;;;;;23.20;9.57;;;;;;;20.82;70.16;98730.59;125542;1097;102919;-84
2021/07/28 06:06:47;;;;;;;25.37;9.73;;;;;;;20.92;69.98;98735.70;125506;1097;103068;-72
2021/07/28 06:09:16;;;;;;;27.00;9.37;;;;;;;21.01;69.85;98738.31;125554;1095;103099;-73
2021/07/28 06:11:44;;;;;;;19.57;8.57;;;;;;;21.09;70.23;98740.92;125546;1096;102958;-78
2021/07/28 06:14:13;;;;;;;23.03;8.30;;;;;;;21.20;69.69;98742.30;125635;1096;103054;-86
2021/07/28 06:16:41;;;;;;;24.83;8.43;;;;;;;21.32;70.09;98735.39;125686;1096;103007;-75
2021/07/28 06:19:09;;;;;;;16.63;7.60;;;;;;;21.44;69.73;98737.58;125566;1095;103011;-77
2021/07/28 06:21:38;;;;;;;18.23;7.60;;;;;;;21.50;69.72;98736.83;125496;1095;103022;-76
2021/07/28 06:24:07;;;;;;;20.33;7.57;;;;;;;21.57;69.87;98735.03;125470;1098;102914;-74
2021/07/28 06:26:35;;;;;;;17.63;7.43;;;;;;;21.67;69.72;98732.90;125533;1096;103006;-75
2021/07/28 06:29:03;;;;;;;21.30;8.50;;;;;;;21.77;69.62;98734.45;125528;1095;103094;-76
2021/07/28 06:31:31;;;;;;;19.53;7.80;;;;;;;21.88;69.86;98735.81;125551;1095;103014;-76
2021/07/28 06:34:00;;;;;;;23.07;8.63;;;;;;;21.97;69.48;98732.77;125478;1096;103036;-76
2021/07/28 06:36:28;;;;;;;19.63;7.03;;;;;;;22.06;69.70;98736.17;125460;1097;103082;-79
2021/07/28 06:38:56;;;;;;;21.57;7.67;;;;;;;22.18;69.49;98730.23;125467;1096;103020;-77
2021/07/28 06:41:25;;;;;;;19.27;7.37;;;;;;;22.26;69.49;98721.98;125438;1096;103100;-79
2021/07/28 06:43:53;;;;;;;18.87;7.07;;;;;;;22.34;69.44;98721.84;125504;1095;102939;-78
2021/07/28 06:46:22;;;;;;;17.63;7.67;;;;;;;22.44;69.15;98711.50;125458;1095;103014;-79
2021/07/28 06:48:50;;;;;;;18.00;7.17;;;;;;;22.52;69.30;98721.38;125412;1097;103161;-78
2021/07/28 06:51:18;;;;;;;17.43;6.77;;;;;;;22.64;69.30;98715.38;125463;1097;102922;-76
2021/07/28 06:53:47;;;;;;;17.47;7.03;;;;;;;22.73;69.11;98715.05;125421;1095;102951;-78
2021/07/28 06:56:15;;;;;;;15.90;6.53;;;;;;;22.88;69.12;98700.51;125450;1096;102919;-74
2021/07/28 06:58:43;;;;;;;16.93;6.60;;;;;;;23.02;69.35;98707.68;125529;1096;102949;-73
2021/07/28 07:01:12;;;;;;;19.40;6.97;;;;;;;23.15;68.88;98698.76;125501;1095;103029;-78
2021/07/28 07:03:40;;;;;;;22.73;7.53;;;;;;;23.30;68.84;98692.38;125543;1096;103075;-74
2021/07/28 07:06:25;;;;;;;17.20;6.77;;;;;;;23.47;68.75;98693.66;125535;1096;102972;-79
2021/07/28 07:08:54;;;;;;;18.60;6.60;;;;;;;23.68;68.94;98686.41;125543;1096;103013;-79
2021/07/28 07:11:23;;;;;;;16.33;6.37;;;;;;;23.97;68.64;98687.06;125654;1096;103022;-79
2021/07/28 07:13:52;;;;;;;15.10;6.30;;;;;;;24.47;68.60;98692.07;125650;1096;103068;-78
2021/07/28 07:16:21;;;;;;;16.60;5.70;;;;;;;25.03;68.64;98694.50;125465;1096;103216;-76
2021/07/28 07:18:49;;;;;;;12.77;5.03;;;;;;;25.54;68.39;98688.17;125400;1097;103007;-76
2021/07/28 07:21:17;;;;;;;12.67;5.70;;;;;;;26.07;67.85;98682.59;125494;1095;103010;-78
2021/07/28 07:23:46;;;;;;;15.57;5.60;;;;;;;26.77;67.98;98676.06;125473;1095;103160;-78
2021/07/28 07:26:15;;;;;;;12.07;5.43;;;;;;;27.19;67.45;98667.17;125577;1096;103010;-83
2021/07/28 07:28:43;;;;;;;16.20;6.20;;;;;;;27.68;67.87;98674.52;125606;1096;102945;-76
2021/07/28 07:31:13;;;;;;;10.20;5.00;;;;;;;27.94;67.32;98660.41;125464;1095;102941;-78
2021/07/28 07:33:41;;;;;;;13.80;5.30;;;;;;;28.13;66.93;98667.72;125491;1096;102920;-76
2021/07/28 07:36:15;;;;;;;18.03;6.20;;;;;;;28.34;66.57;98663.56;125486;1095;103000;-78
2021/07/28 07:38:43;;;;;;;19.83;6.20;;;;;;;28.45;66.43;98670.94;125617;1095;103149;-75
2021/07/28 07:41:12;;;;;;;14.60;4.70;;;;;;;28.71;66.62;98662.47;125465;1097;103424;-82
2021/07/28 07:43:41;;;;;;;11.50;5.00;;;;;;;28.84;65.83;98658.66;125488;1096;102932;-68
2021/07/28 07:46:09;;;;;;;13.10;5.20;;;;;;;28.88;65.32;98655.22;125545;1096;102922;-74
2021/07/28 07:48:38;;;;;;;17.13;5.20;;;;;;;28.91;65.03;98657.47;125519;1096;102603;-72
2021/07/28 07:51:06;;;;;;;15.33;5.40;;;;;;;28.92;64.12;98656.40;125372;1097;103220;-72
2021/07/28 07:53:35;;;;;;;13.30;4.93;;;;;;;28.93;63.91;98651.73;125445;1096;103008;-70
2021/07/28 07:56:05;;;;;;;18.00;5.93;;;;;;;29.02;64.40;98650.30;125407;1096;103001;-68
2021/07/28 07:58:34;;;;;;;14.77;5.23;;;;;;;29.14;63.59;98652.17;125442;1096;102948;-71
2021/07/28 08:01:11;;;;;;;13.07;5.03;;;;;;;29.29;63.36;98646.15;125470;1097;103038;-72
2021/07/28 08:03:42;;;;;;;16.07;5.23;;;;;;;29.41;62.55;98658.73;125405;1095;102942;-72
2021/07/28 08:06:11;;;;;;;12.97;5.30;;;;;;;29.60;63.45;98641.25;125477;1096;102916;-71
2021/07/28 08:08:39;;;;;;;15.47;5.70;;;;;;;29.76;61.61;98645.09;125413;1095;103041;-72
2021/07/28 08:11:13;;;;;;;13.90;5.07;;;;;;;29.79;61.13;98652.81;125388;1097;103075;-73
2021/07/28 08:13:44;;;;;;;13.43;5.10;;;;;;;29.68;60.87;98646.34;125373;1096;103134;-72
2021/07/28 08:16:18;;;;;;;19.50;6.27;;;;;;;29.79;60.46;98641.85;125308;1096;103049;-74
2021/07/28 08:18:49;;;;;;;14.65;5.15;;;;;;;30.57;59.96;98638.40;125378;1096;103000;-75
2021/07/28 08:21:18;;;;;;;15.37;5.40;;;;;;;31.23;59.62;98640.34;125568;1097;103039;-77
2021/07/28 08:23:48;;;;;;;18.13;5.87;;;;;;;31.87;59.57;98644.26;125364;1096;103414;-78
2021/07/28 08:26:20;;;;;;;17.87;5.47;;;;;;;32.45;58.68;98642.76;125645;1095;102965;-76
2021/07/28 08:28:48;;;;;;;14.27;5.70;;;;;;;32.90;58.77;98646.86;125373;1095;103137;-75
2021/07/28 08:31:17;;;;;;;17.70;5.17;;;;;;;33.32;58.55;98639.56;125320;1097;102919;-76
2021/07/28 08:33:45;;;;;;;20.70;5.53;;;;;;;33.81;58.21;98642.96;125276;1097;103071;-78
2021/07/28 08:36:13;;;;;;;14.97;5.03;;;;;;;34.31;57.72;98637.69;125337;1097;103462;-78
2021/07/28 08:38:42;;;;;;;13.70;4.80;;;;;;;34.70;57.15;98634.30;125733;1096;102981;-75
2021/07/28 08:41:10;;;;;;;16.60;5.40;;;;;;;34.93;57.22;98637.50;125369;1095;103089;-72
2021/07/28 08:43:40;;;;;;;17.03;5.77;;;;;;;35.32;56.73;98624.89;125417;1096;102942;-73
2021/07/28 08:46:09;;;;;;;14.75;5.40;;;;;;;35.66;56.63;98624.13;125414;1097;102924;-72
2021/07/28 08:48:38;;;;;;;15.47;5.67;;;;;;;35.91;56.27;98623.08;125326;1097;103016;-75
2021/07/28 08:51:06;;;;;;;15.80;5.60;;;;;;;36.43;56.06;98622.59;125380;1095;102975;-76
2021/07/28 08:53:35;;;;;;;17.90;5.90;;;;;;;36.74;55.21;98622.26;125341;1096;103016;-75
2021/07/28 08:56:04;;;;;;;15.00;5.37;;;;;;;36.88;54.78;98622.34;125252;1095;102923;-76
2021/07/28 08:58:32;;;;;;;15.87;5.37;;;;;;;37.00;53.88;98626.67;125319;1095;102937;-75
2021/07/28 09:01:01;;;;;;;16.63;5.63;;;;;;;37.18;53.65;98620.30;125380;1097;103008;-72
2021/07/28 09:03:30;;;;;;;19.20;5.60;;;;;;;37.21;53.27;98618.89;125361;1096;103014;-77
2021/07/28 09:06:01;;;;;;;13.73;5.00;;;;;;;37.42;53.23;98619.41;125354;1096;103042;-76
2021/07/28 09:08:35;;;;;;;19.85;6.08;;;;;;;37.59;52.70;98620.83;125484;1096;103104;-85
2021/07/28 09:11:08;;;;;;;18.73;5.73;;;;;;;37.53;51.70;98620.10;125431;1096;102940;-79
2021/07/28 09:13:43;;;;;;;16.73;6.03;;;;;;;37.60;50.48;98628.87;125478;1095;102943;-71
2021/07/28 09:16:18;;;;;;;15.83;5.43;;;;;;;37.49;50.59;98619.05;125462;1095;102944;-72
2021/07/28 09:18:52;;;;;;;19.53;6.60;;;;;;;37.52;50.22;98619.26;125380;1095;103141;-74
2021/07/28 09:21:20;;;;;;;15.90;5.37;;;;;;;37.58;49.79;98619.18;125447;1096;103001;-74
2021/07/28 09:23:58;;;;;;;16.13;5.33;;;;;;;37.64;49.32;98615.20;125412;1096;103144;-77
2021/07/28 09:26:31;;;;;;;16.30;5.13;;;;;;;37.64;48.89;98615.20;125455;1096;102942;-75
2021/07/28 09:29:10;;;;;;;16.20;6.47;;;;;;;37.62;48.49;98617.45;125396;1097;103045;-73
2021/07/28 09:31:46;;;;;;;16.67;5.53;;;;;;;37.63;48.44;98619.10;125430;1097;102945;-73
2021/07/28 09:34:18;;;;;;;17.60;5.67;;;;;;;37.75;48.02;98611.14;125456;1095;103065;-72
2021/07/28 09:37:14;;;;;;;17.23;5.17;;;;;;;37.88;47.51;98606.75;125478;1095;102974;-85
2021/07/28 09:39:48;;;;;;;19.33;6.17;;;;;;;37.81;47.10;98603.54;125797;1096;102941;-84
2021/07/28 09:42:28;;;;;;;18.60;5.60;;;;;;;38.06;46.87;98605.06;125631;1096;102922;-84
2021/07/28 09:44:59;;;;;;;;;;;;;;;38.12;45.44;98603.84;125639;1096;102919;-76
2021/07/28 09:47:40;;;;;;;15.83;5.57;;;;;;;38.01;45.79;98599.61;125375;1096;103005;-80
2021/07/28 09:50:08;;;;;;;17.03;5.67;;;;;;;37.80;45.76;98597.18;125328;1096;102938;-79
2021/07/28 09:52:37;;;;;;;17.47;5.43;;;;;;;37.68;45.48;98599.60;125391;1096;102914;-76
2021/07/28 09:55:27;;;;;;;18.47;5.80;;;;;;;37.56;45.01;98585.38;125369;1097;103008;-74
2021/07/28 09:57:59;;;;;;;20.93;5.60;;;;;;;37.74;44.11;98587.30;125584;1094;103006;-81
2021/07/28 10:00:29;;;;;;;13.27;5.03;;;;;;;37.80;44.39;98577.76;125631;1095;102935;-81
2021/07/28 10:03:04;;;;;;;17.87;5.17;;;;;;;37.73;44.01;98585.64;125625;1096;103019;-83
2021/07/28 10:05:40;;;;;;;18.67;5.13;;;;;;;37.42;43.83;98576.97;125570;1096;101811;-81
2021/07/28 10:08:12;;;;;;;17.17;5.47;;;;;;;36.90;43.43;98578.55;125602;1095;102922;-83
2021/07/28 10:10:42;;;;;;;16.33;5.47;;;;;;;36.47;43.50;98568.31;125631;1096;103095;-80
2021/07/28 10:13:10;;;;;;;19.03;6.13;;;;;;;36.20;43.20;98571.64;125655;1095;102919;-73
2021/07/28 10:15:40;;;;;;;21.43;5.60;;;;;;;35.97;42.19;98560.23;125424;1096;103370;-81
2021/07/28 10:18:09;;;;;;;20.63;6.37;;;;;;;35.66;41.55;98556.93;125416;1097;103042;-73
2021/07/28 10:20:38;;;;;;;22.00;5.83;;;;;;;35.26;41.68;98568.80;125458;1095;102941;-74
2021/07/28 10:23:06;;;;;;;19.45;5.80;;;;;;;34.80;41.62;98574.60;125408;1096;103053;-75
2021/07/28 10:25:35;;;;;;;17.80;5.93;;;;;;;34.41;41.64;98565.06;125411;1096;102969;-75
2021/07/28 10:28:04;;;;;;;16.90;5.20;;;;;;;34.16;41.73;98577.00;125426;1096;103058;-74
2021/07/28 10:30:32;;;;;;;14.33;5.40;;;;;;;33.91;41.01;98562.13;125438;1096;103044;-76
2021/07/28 10:33:27;;;;;;;16.10;5.10;;;;;;;33.63;40.79;98567.95;125457;1095;103004;-75
2021/07/28 10:35:55;;;;;;;19.13;5.20;;;;;;;33.33;41.16;98558.55;125473;1095;103171;-75
2021/07/28 10:38:24;;;;;;;19.07;5.77;;;;;;;33.17;41.12;98563.22;125488;1096;102930;-77
2021/07/28 10:40:59;;;;;;;16.70;5.27;;;;;;;33.06;40.98;98559.59;125567;1095;103045;-76
2021/07/28 10:43:28;;;;;;;19.80;5.60;;;;;;;32.89;40.61;98562.59;125557;1097;103537;-73
2021/07/28 10:46:00;;;;;;;16.43;5.67;;;;;;;32.72;40.71;98550.95;125511;1097;103023;-79
2021/07/28 10:48:41;;;;;;;15.87;5.73;;;;;;;32.56;40.92;98559.15;125465;1095;103131;-78
2021/07/28 10:51:09;;;;;;;17.60;5.90;;;;;;;32.51;40.79;98545.36;125417;1095;103004;-79
2021/07/28 10:53:48;;;;;;;19.77;6.10;;;;;;;32.44;40.31;98555.78;125387;1095;102929;-78
2021/07/28 10:56:19;;;;;;;24.27;5.80;;;;;;;32.43;40.75;98545.88;125206;1095;103476;-79
2021/07/28 10:58:50;;;;;;;20.98;5.98;;;;;;;32.40;40.59;98547.25;125371;1095;102926;-83
2021/07/28 11:01:52;;;;;;;17.93;6.27;;;;;;;32.19;40.59;98552.64;125699;1095;102921;-81
2021/07/28 11:04:24;;;;;;;26.00;7.00;;;;;;;31.93;40.54;98549.72;125744;1096;103003;-83
2021/07/28 11:06:54;;;;;;;23.97;7.33;;;;;;;31.79;40.68;98545.79;125672;1096;102991;-82
2021/07/28 11:09:24;;;;;;;15.43;5.20;;;;;;;31.74;40.60;98543.81;125690;1096;102931;-83
2021/07/28 11:11:56;;;;;;;22.10;5.93;;;;;;;31.68;40.86;98542.09;125657;1096;102942;-83
2021/07/28 11:14:27;;;;;;;17.43;5.37;;;;;;;31.64;40.67;98546.45;125635;1094;103060;-84
2021/07/28 11:16:57;;;;;;;17.03;5.47;;;;;;;31.61;40.73;98547.81;125694;1096;103001;-84
2021/07/28 11:19:46;;;;;;;19.13;5.97;;;;;;;31.62;40.79;98545.88;125613;1096;103101;-82
2021/07/28 11:22:14;;;;;;;19.53;6.20;;;;;;;31.57;40.60;98534.88;125603;1096;102964;-80
2021/07/28 11:24:45;;;;;;;20.83;5.87;;;;;;;31.58;40.50;98534.59;125560;1096;102919;-80